createdAt,value
2023-02-02T00:01:01.287Z,-1.72
2023-02-02T00:03:29.694Z,-1.73
2023-02-02T00:05:57.339Z,-1.74
2023-02-02T00:08:24.294Z,-1.74
2023-02-02T00:10:51.513Z,-1.74
2023-02-02T00:13:18.347Z,-1.73
2023-02-02T00:15:45.937Z,-1.73
2023-02-02T00:18:12.760Z,-1.74
2023-02-02T00:20:39.891Z,-1.73
2023-02-02T00:23:06.697Z,-1.72
2023-02-02T00:25:34.035Z,-1.71
2023-02-02T00:28:01.235Z,-1.69
2023-02-02T00:30:28.403Z,-1.67
2023-02-02T00:32:56.482Z,-1.63
2023-02-02T00:35:24.119Z,-1.61
2023-02-02T00:37:51.555Z,-1.61
2023-02-02T00:40:18.421Z,-1.59
2023-02-02T00:42:49.896Z,-1.58
2023-02-02T00:45:16.892Z,-1.57
2023-02-02T00:47:47.996Z,-1.56
2023-02-02T00:50:19.263Z,-1.53
2023-02-02T00:52:47.709Z,-1.52
2023-02-02T00:55:15.211Z,-1.53
2023-02-02T00:57:46.326Z,-1.54
2023-02-02T01:00:23.786Z,-1.54
2023-02-02T01:02:51.709Z,-1.53
2023-02-02T01:05:19.363Z,-1.53
2023-02-02T01:07:46.746Z,-1.54
2023-02-02T01:10:17.387Z,-1.52
2023-02-02T01:12:44.727Z,-1.49
2023-02-02T01:15:13.575Z,-1.47
2023-02-02T01:17:41.315Z,-1.45
2023-02-02T01:20:10.611Z,-1.44
2023-02-02T01:22:38.177Z,-1.43
2023-02-02T01:25:05.593Z,-1.43
2023-02-02T01:27:32.700Z,-1.43
2023-02-02T01:29:59.573Z,-1.44
2023-02-02T01:32:26.513Z,-1.43
2023-02-02T01:34:53.653Z,-1.42
2023-02-02T01:37:21.807Z,-1.42
2023-02-02T01:39:48.809Z,-1.41
2023-02-02T01:42:19.666Z,-1.40
2023-02-02T01:45:03.438Z,-1.39
2023-02-02T01:47:37.784Z,-1.38
2023-02-02T01:50:05.414Z,-1.36
2023-02-02T01:52:32.504Z,-1.36
2023-02-02T01:55:01.128Z,-1.36
2023-02-02T01:57:41.320Z,-1.34
2023-02-02T02:00:10.921Z,-1.32
2023-02-02T02:02:44.627Z,-1.31
2023-02-02T02:05:11.609Z,-1.31
2023-02-02T02:07:40.156Z,-1.31
2023-02-02T02:10:08.009Z,-1.30
2023-02-02T02:12:35.490Z,-1.29
2023-02-02T02:15:24.409Z,-1.25
2023-02-02T02:18:28.371Z,-1.21
2023-02-02T02:21:26.088Z,-1.19
2023-02-02T02:24:39.079Z,-1.19
2023-02-02T02:27:50.081Z,-1.16
2023-02-02T02:30:50.469Z,-1.12
2023-02-02T02:33:30.633Z,-1.11
2023-02-02T02:36:03.979Z,-1.09
2023-02-02T02:38:46.154Z,-1.08
2023-02-02T02:41:22.208Z,-1.06
2023-02-02T02:43:56.319Z,-1.04
2023-02-02T02:46:23.513Z,-1.01
2023-02-02T02:48:50.607Z,-1.00
2023-02-02T02:51:52.659Z,-0.99
2023-02-02T02:54:27.120Z,-0.97
2023-02-02T02:57:01.318Z,-0.96
2023-02-02T02:59:50.233Z,-0.94
2023-02-02T03:02:36.902Z,-0.92
2023-02-02T03:05:19.513Z,-0.93
2023-02-02T03:08:08.630Z,-0.92
2023-02-02T03:10:36.410Z,-0.90
2023-02-02T03:13:07.011Z,-0.88
2023-02-02T03:15:33.886Z,-0.87
2023-02-02T03:18:01.744Z,-0.86
2023-02-02T03:20:28.983Z,-0.84
2023-02-02T03:22:55.801Z,-0.81
2023-02-02T03:25:23.536Z,-0.79
2023-02-02T03:27:51.445Z,-0.79
2023-02-02T03:30:18.488Z,-0.79
2023-02-02T03:32:46.130Z,-0.80
2023-02-02T03:35:13.129Z,-0.79
2023-02-02T03:37:40.047Z,-0.79
2023-02-02T03:40:07.667Z,-0.79
2023-02-02T03:42:34.646Z,-0.78
2023-02-02T03:45:01.683Z,-0.77
2023-02-02T03:47:29.509Z,-0.76
2023-02-02T03:57:36.055Z,-0.68
2023-02-02T04:00:04.941Z,-0.68
2023-02-02T04:02:40.635Z,-0.66
2023-02-02T04:05:08.933Z,-0.66
2023-02-02T07:27:28.319Z,0.07
2023-02-02T07:29:55.660Z,0.10
2023-02-02T07:32:22.620Z,0.13
2023-02-02T07:34:49.763Z,0.16
2023-02-02T07:37:16.654Z,0.14
2023-02-02T07:39:43.927Z,0.17
2023-02-02T07:42:12.273Z,0.26
2023-02-02T07:44:40.116Z,0.34
2023-02-02T07:47:07.251Z,0.42
2023-02-02T07:49:34.129Z,0.56
2023-02-02T07:52:01.432Z,0.68
2023-02-02T07:54:28.675Z,0.78
2023-02-02T07:56:55.658Z,0.92
2023-02-02T07:59:22.553Z,1.07
2023-02-02T08:01:49.612Z,1.21
2023-02-02T08:04:16.842Z,1.28
2023-02-02T08:06:43.794Z,1.36
2023-02-02T08:09:10.833Z,1.47
2023-02-02T08:11:38.128Z,1.61
2023-02-02T08:14:05.552Z,1.77
2023-02-02T08:16:33.076Z,1.87
2023-02-02T08:19:00.204Z,2.02
2023-02-02T08:21:27.267Z,2.18
2023-02-02T08:23:54.205Z,2.34
2023-02-02T08:26:21.720Z,2.58
2023-02-02T08:28:51.935Z,2.93
2023-02-02T08:31:21.149Z,3.27
2023-02-02T08:33:48.888Z,3.49
2023-02-02T08:36:17.639Z,3.63
2023-02-02T08:38:47.369Z,3.66
2023-02-02T08:41:16.202Z,3.45
2023-02-02T08:43:43.866Z,3.22
2023-02-02T08:46:14.614Z,3.02
2023-02-02T08:48:41.686Z,2.88
2023-02-02T08:51:10.507Z,2.81
2023-02-02T08:53:42.740Z,2.75
2023-02-02T08:56:11.995Z,2.62
2023-02-02T08:58:38.984Z,2.60
2023-02-02T09:01:27.993Z,2.69
2023-02-02T09:03:58.758Z,2.70
2023-02-02T09:06:35.292Z,2.69
2023-02-02T09:09:05.593Z,2.75
2023-02-02T09:11:33.996Z,2.68
2023-02-02T09:14:06.841Z,2.62
2023-02-02T09:16:36.733Z,2.56
2023-02-02T09:19:05.605Z,2.58
2023-02-02T09:21:37.625Z,2.52
2023-02-02T09:24:10.256Z,2.40
2023-02-02T09:26:40.563Z,2.38
2023-02-02T09:29:12.049Z,2.37
2023-02-02T09:31:40.410Z,2.40
2023-02-02T09:34:10.588Z,2.46
2023-02-02T09:36:39.296Z,2.52
2023-02-02T09:39:09.749Z,2.65
2023-02-02T09:41:38.239Z,2.75
2023-02-02T09:44:33.101Z,2.76
2023-02-02T09:47:18.326Z,2.68
2023-02-02T09:50:19.412Z,2.63
2023-02-02T09:53:11.505Z,2.63
2023-02-02T09:55:41.624Z,2.67
2023-02-02T09:58:20.130Z,2.75
2023-02-02T10:00:52.710Z,2.76
2023-02-02T10:04:16.451Z,2.80
2023-02-02T10:06:49.487Z,2.73
2023-02-02T10:09:43.974Z,2.67
2023-02-02T10:12:53.858Z,2.72
2023-02-02T10:15:28.622Z,2.87
2023-02-02T10:17:59.624Z,3.00
2023-02-02T10:20:33.068Z,3.08
2023-02-02T10:23:12.324Z,3.16
2023-02-02T10:25:41.562Z,3.32
2023-02-02T10:28:17.635Z,3.53
2023-02-02T10:30:55.676Z,3.83
2023-02-02T10:33:39.968Z,4.03
2023-02-02T10:36:22.114Z,4.07
2023-02-02T10:39:00.664Z,3.94
2023-02-02T10:41:38.877Z,3.95
2023-02-02T10:44:16.024Z,3.92
2023-02-02T10:46:47.349Z,3.88
2023-02-02T10:49:33.637Z,3.84
2023-02-02T10:52:34.379Z,3.86
2023-02-02T10:55:19.309Z,3.95
2023-02-02T10:57:57.621Z,4.01
2023-02-02T11:00:35.399Z,3.88
2023-02-02T11:03:05.246Z,3.71
2023-02-02T11:05:54.159Z,3.60
2023-02-02T11:08:30.709Z,3.56
2023-02-02T11:10:59.414Z,3.52
2023-02-02T11:13:32.326Z,3.47
2023-02-02T11:16:16.090Z,3.49
2023-02-02T11:18:44.717Z,3.57
2023-02-02T11:21:20.820Z,3.64
2023-02-02T11:24:00.424Z,3.51
2023-02-02T11:26:56.626Z,3.40
2023-02-02T11:29:44.486Z,3.45
2023-02-02T11:32:35.463Z,3.53
2023-02-02T11:35:08.470Z,3.36
2023-02-02T11:37:37.969Z,3.26
2023-02-02T11:40:27.620Z,3.14
2023-02-02T11:42:57.163Z,3.03
2023-02-02T11:45:35.704Z,2.89
2023-02-02T11:48:22.140Z,2.74
2023-02-02T11:50:52.370Z,2.60
2023-02-02T11:53:26.013Z,2.50
2023-02-02T11:55:55.179Z,2.50
2023-02-02T11:58:30.961Z,2.52
2023-02-02T12:01:03.958Z,2.52
2023-02-02T12:03:41.278Z,2.57
2023-02-02T12:06:23.910Z,2.64
2023-02-02T12:08:58.431Z,2.73
2023-02-02T12:11:39.443Z,2.67
2023-02-02T12:14:18.297Z,2.62
2023-02-02T12:17:10.380Z,2.56
2023-02-02T12:19:57.861Z,2.52
2023-02-02T12:23:04.642Z,2.46
2023-02-02T12:25:59.328Z,2.40
2023-02-02T12:28:30.399Z,2.45
2023-02-02T12:31:13.813Z,2.49
2023-02-02T12:33:50.708Z,2.50
2023-02-02T12:36:22.228Z,2.47
2023-02-02T12:38:58.039Z,2.45
2023-02-02T12:41:45.091Z,2.41
2023-02-02T12:44:42.551Z,2.38
2023-02-02T12:47:29.586Z,2.30
2023-02-02T12:50:10.352Z,2.31
2023-02-02T12:53:07.553Z,2.28
2023-02-02T12:55:57.833Z,2.24
2023-02-02T12:58:41.591Z,2.25
2023-02-02T13:01:22.008Z,2.25
2023-02-02T13:03:50.435Z,2.22
2023-02-02T13:06:43.756Z,2.20
2023-02-02T13:09:13.627Z,2.19
2023-02-02T13:11:46.110Z,2.18
2023-02-02T13:14:31.891Z,2.15
2023-02-02T13:17:03.005Z,2.15
2023-02-02T13:19:52.324Z,2.18
2023-02-02T13:22:32.435Z,2.21
2023-02-02T13:25:01.470Z,2.24
2023-02-02T13:27:30.876Z,2.23
2023-02-02T13:30:30.159Z,2.21
2023-02-02T13:33:00.503Z,2.19
2023-02-02T13:35:38.676Z,2.20
2023-02-02T13:38:21.388Z,2.18
2023-02-02T13:40:50.240Z,2.15
2023-02-02T13:43:21.958Z,2.13
2023-02-02T13:46:21.818Z,2.12
2023-02-02T13:49:11.064Z,2.10
2023-02-02T13:52:04.293Z,2.06
2023-02-02T13:54:38.641Z,2.01
2023-02-02T13:57:28.984Z,1.97
2023-02-02T14:00:36.399Z,1.96
2023-02-02T14:03:06.347Z,1.96
2023-02-02T14:05:39.659Z,1.96
2023-02-02T14:08:30.268Z,1.98
2023-02-02T14:11:00.947Z,1.97
2023-02-02T14:13:55.263Z,1.93
2023-02-02T14:16:45.742Z,1.89
2023-02-02T14:19:16.270Z,1.86
2023-02-02T14:21:44.597Z,1.82
2023-02-02T14:24:34.867Z,1.75
2023-02-02T14:27:23.503Z,1.71
2023-02-02T14:29:54.816Z,1.66
2023-02-02T14:32:29.498Z,1.61
2023-02-02T14:35:11.269Z,1.55
2023-02-02T14:37:43.347Z,1.48
2023-02-02T14:40:43.854Z,1.39
2023-02-02T14:43:55.613Z,1.34
2023-02-02T14:46:40.384Z,1.25
2023-02-02T14:49:13.576Z,1.18
2023-02-02T14:51:46.575Z,1.09
2023-02-02T14:54:26.642Z,1.01
2023-02-02T14:56:59.477Z,0.91
2023-02-02T14:59:39.078Z,0.85
2023-02-02T15:02:15.715Z,0.78
2023-02-02T15:04:48.025Z,0.71
2023-02-02T15:07:25.423Z,0.65
2023-02-02T15:09:58.431Z,0.58
2023-02-02T15:12:40.904Z,0.52
2023-02-02T15:15:12.072Z,0.43
2023-02-02T15:17:41.038Z,0.36
2023-02-02T15:20:32.055Z,0.28
2023-02-02T15:23:39.301Z,0.21
2023-02-02T15:26:28.739Z,0.16
2023-02-02T15:29:19.728Z,0.14
2023-02-02T15:31:52.380Z,0.12
2023-02-02T15:34:27.228Z,0.11
2023-02-02T15:36:57.742Z,0.09
2023-02-02T15:39:41.867Z,0.07
2023-02-02T15:42:40.695Z,0.05
2023-02-02T15:45:35.792Z,0.02
2023-02-02T15:48:16.432Z,-0.01
2023-02-02T15:50:46.855Z,-0.03
2023-02-02T15:53:20.511Z,-0.04
2023-02-02T15:55:49.032Z,-0.06
2023-02-02T15:58:26.544Z,-0.08
2023-02-02T16:01:03.667Z,-0.10
2023-02-02T16:03:42.561Z,-0.12
2023-02-02T16:06:10.775Z,-0.13
2023-02-02T16:08:40.139Z,-0.14
2023-02-02T16:11:19.462Z,-0.16
2023-02-02T16:14:10.662Z,-0.16
2023-02-02T16:16:40.129Z,-0.18
2023-02-02T16:19:09.103Z,-0.20
2023-02-02T16:21:55.094Z,-0.23
2023-02-02T16:24:24.683Z,-0.25
2023-02-02T16:26:54.359Z,-0.27
2023-02-02T16:29:23.287Z,-0.31
2023-02-02T16:31:51.996Z,-0.34
2023-02-02T16:34:40.593Z,-0.36
2023-02-02T16:37:27.549Z,-0.39
2023-02-02T16:39:57.905Z,-0.43
2023-02-02T16:42:28.876Z,-0.46
2023-02-02T16:44:59.613Z,-0.48
2023-02-02T16:47:28.130Z,-0.49
2023-02-02T16:50:26.830Z,-0.51
2023-02-02T16:53:04.647Z,-0.51
2023-02-02T16:55:49.521Z,-0.50
2023-02-02T16:58:22.585Z,-0.48
2023-02-02T17:01:16.843Z,-0.48
2023-02-02T17:03:53.527Z,-0.48
2023-02-02T17:06:41.597Z,-0.49
2023-02-02T17:09:25.912Z,-0.50
2023-02-02T17:12:34.940Z,-0.49
2023-02-02T17:15:29.405Z,-0.47
2023-02-02T17:17:59.336Z,-0.47
2023-02-02T17:20:27.825Z,-0.46
2023-02-02T17:23:01.696Z,-0.45
2023-02-02T17:25:36.669Z,-0.44
2023-02-02T17:28:08.190Z,-0.44
2023-02-02T17:30:41.456Z,-0.43
2023-02-02T17:33:16.387Z,-0.41
2023-02-02T17:35:54.675Z,-0.39
2023-02-02T17:38:24.657Z,-0.38
2023-02-02T17:40:53.412Z,-0.37
2023-02-02T17:43:23.871Z,-0.36
2023-02-02T17:45:52.252Z,-0.34
2023-02-02T17:48:21.056Z,-0.33
2023-02-02T17:50:49.298Z,-0.31
2023-02-02T17:53:19.779Z,-0.30
2023-02-02T17:55:49.839Z,-0.28
2023-02-02T17:58:19.005Z,-0.27
2023-02-02T18:00:49.277Z,-0.25
2023-02-02T18:03:33.706Z,-0.23
2023-02-02T18:06:04.037Z,-0.21
2023-02-02T18:08:32.908Z,-0.19
2023-02-02T18:11:01.411Z,-0.18
2023-02-02T18:13:31.047Z,-0.18
2023-02-02T18:16:02.374Z,-0.18
2023-02-02T18:18:31.868Z,-0.18
2023-02-02T18:21:00.367Z,-0.17
2023-02-02T18:23:29.309Z,-0.17
2023-02-02T18:25:57.639Z,-0.16
2023-02-02T18:28:26.446Z,-0.16
2023-02-02T18:30:55.705Z,-0.15
2023-02-02T18:33:24.764Z,-0.15
2023-02-02T18:35:53.380Z,-0.15
2023-02-02T18:38:24.496Z,-0.14
2023-02-02T18:40:58.880Z,-0.13
2023-02-02T18:43:27.913Z,-0.13
2023-02-02T18:46:07.286Z,-0.11
2023-02-02T18:48:37.087Z,-0.09
2023-02-02T18:51:12.452Z,-0.07
2023-02-02T18:53:45.160Z,-0.06
2023-02-02T18:56:14.520Z,-0.04
2023-02-02T18:58:42.990Z,-0.02
2023-02-02T19:01:16.785Z,-0.01
2023-02-02T19:03:49.664Z,0.00
2023-02-02T19:06:38.020Z,0.03
2023-02-02T19:09:06.472Z,0.04
2023-02-02T19:11:44.693Z,0.06
2023-02-02T19:14:26.760Z,0.08
2023-02-02T19:16:58.682Z,0.08
2023-02-02T19:19:30.793Z,0.09
2023-02-02T19:22:03.396Z,0.10
2023-02-02T19:24:37.616Z,0.10
2023-02-02T19:27:15.940Z,0.11
2023-02-02T19:29:55.262Z,0.11
2023-02-02T19:32:27.114Z,0.11
2023-02-02T19:34:58.225Z,0.11
2023-02-02T19:37:30.714Z,0.11
2023-02-02T19:40:08.620Z,0.09
2023-02-02T19:45:23.834Z,0.09
2023-02-02T19:47:52.765Z,0.08
2023-02-02T19:50:22.792Z,0.08
2023-02-02T19:52:51.679Z,0.07
2023-02-02T19:55:28.966Z,0.07
2023-02-02T19:58:01.735Z,0.03
2023-02-02T20:00:30.558Z,0.01
2023-02-02T20:03:02.873Z,-0.02
2023-02-02T20:05:46.632Z,-0.04
2023-02-02T20:08:30.985Z,-0.07
2023-02-02T20:11:00.876Z,-0.09
2023-02-02T20:13:48.719Z,-0.12
2023-02-02T20:16:19.455Z,-0.15
2023-02-02T20:18:54.696Z,-0.21
2023-02-02T20:21:28.047Z,-0.26
2023-02-02T20:23:57.518Z,-0.30
2023-02-02T20:26:29.480Z,-0.35
2023-02-02T20:28:59.218Z,-0.37
2023-02-02T20:31:35.915Z,-0.38
2023-02-02T20:34:24.286Z,-0.41
2023-02-02T20:36:55.735Z,-0.45
2023-02-02T20:39:37.299Z,-0.47
2023-02-02T20:42:05.895Z,-0.49
2023-02-02T20:44:35.295Z,-0.52
2023-02-02T20:47:04.284Z,-0.56
2023-02-02T20:49:35.009Z,-0.60
2023-02-02T20:52:04.660Z,-0.67
2023-02-02T20:54:34.199Z,-0.71
2023-02-02T20:57:02.544Z,-0.74
2023-02-02T20:59:34.225Z,-0.75
2023-02-02T21:02:06.329Z,-0.75
2023-02-02T21:04:35.069Z,-0.75
2023-02-02T21:07:04.383Z,-0.73
2023-02-02T21:09:33.362Z,-0.74
2023-02-02T21:12:02.870Z,-0.74
2023-02-02T21:14:31.892Z,-0.74
2023-02-02T21:17:13.993Z,-0.74
2023-02-02T21:19:45.780Z,-0.74
2023-02-02T21:22:14.569Z,-0.74
2023-02-02T21:24:43.705Z,-0.77
2023-02-02T21:27:12.182Z,-0.79
2023-02-02T21:29:40.916Z,-0.82
2023-02-02T21:32:09.372Z,-0.84
2023-02-02T21:34:37.973Z,-0.86
2023-02-02T21:37:14.426Z,-0.87
2023-02-02T21:39:49.796Z,-0.88
2023-02-02T21:42:20.160Z,-0.89
2023-02-02T21:44:54.366Z,-0.90
2023-02-02T21:47:26.904Z,-0.91
2023-02-02T21:49:56.964Z,-0.92
2023-02-02T21:52:25.889Z,-0.93
2023-02-02T21:54:54.030Z,-0.92
2023-02-02T21:57:35.581Z,-0.89
2023-02-02T22:00:28.816Z,-0.89
2023-02-02T22:02:59.181Z,-0.88
2023-02-02T22:05:34.609Z,-0.87
2023-02-02T22:08:18.163Z,-0.87
2023-02-02T22:10:47.539Z,-0.87
2023-02-02T22:13:21.214Z,-0.87
2023-02-02T22:15:52.499Z,-0.86
2023-02-02T22:18:23.412Z,-0.86
2023-02-02T22:20:53.126Z,-0.87
2023-02-02T22:23:22.738Z,-0.87
2023-02-02T22:25:53.636Z,-0.85
2023-02-02T22:28:30.258Z,-0.84
2023-02-02T22:31:00.978Z,-0.86
2023-02-02T22:33:32.537Z,-0.86
2023-02-02T22:36:09.768Z,-0.88
2023-02-02T22:38:38.164Z,-0.90
2023-02-02T22:41:08.868Z,-0.92
2023-02-02T22:43:37.256Z,-0.91
2023-02-02T22:46:05.488Z,-0.91
2023-02-02T22:48:33.726Z,-0.91
2023-02-02T22:51:01.912Z,-0.90
2023-02-02T22:53:32.602Z,-0.89
2023-02-02T22:56:00.891Z,-0.87
2023-02-02T22:58:31.652Z,-0.88
2023-02-02T23:01:00.069Z,-0.86
2023-02-02T23:03:28.251Z,-0.84
2023-02-02T23:05:56.786Z,-0.82
2023-02-02T23:08:25.116Z,-0.82
2023-02-02T23:11:13.170Z,-0.79
2023-02-02T23:13:41.384Z,-0.78
2023-02-02T23:16:11.090Z,-0.77
2023-02-02T23:18:39.337Z,-0.76
2023-02-02T23:21:07.817Z,-0.76
2023-02-02T23:23:36.023Z,-0.76
2023-02-02T23:26:04.880Z,-0.76
2023-02-02T23:28:33.031Z,-0.74
2023-02-02T23:31:02.481Z,-0.73
2023-02-02T23:33:31.296Z,-0.71
2023-02-02T23:35:59.682Z,-0.70
2023-02-02T23:38:27.903Z,-0.70
2023-02-02T23:40:56.293Z,-0.71
2023-02-02T23:43:24.553Z,-0.72
2023-02-02T23:45:53.287Z,-0.73
2023-02-02T23:48:21.548Z,-0.74
2023-02-02T23:50:49.768Z,-0.75
2023-02-02T23:53:18.021Z,-0.74
2023-02-02T23:55:49.268Z,-0.74
2023-02-02T23:58:19.154Z,-0.72
